Time;durP1;ratioP1;P1;durP2;ratioP2;P2;SDS_P1;SDS_P2;PMS_P1;PMS_P2;Temp;Humidity;BMP_temperature;BMP_pressure;BME280_temperature;BME280_humidity;BME280_pressure;Samples;Min_cycle;Max_cycle;Signal;HPM_P1;HPM_P2
2021/12/04 00:00:13;;;;;;;0.40;0.20;;;3.30;99.90;;;;;;4973067;28;20389;-70
2021/12/04 00:02:39;;;;;;;0.40;0.20;;;3.30;99.90;;;;;;4972810;28;20542;-70
2021/12/04 00:05:06;;;;;;;0.40;0.20;;;3.20;99.90;;;;;;4972321;28;20420;-68
2021/12/04 00:07:34;;;;;;;0.40;0.20;;;3.20;99.90;;;;;;4972304;28;20401;-69
2021/12/04 00:10:03;;;;;;;0.40;0.20;;;3.30;99.90;;;;;;4972270;28;20459;-70
2021/12/04 00:12:34;;;;;;;0.40;0.20;;;3.40;99.90;;;;;;4972732;28;20726;-71
2021/12/04 00:15:00;;;;;;;0.40;0.20;;;3.40;99.90;;;;;;4964698;28;20509;-70
2021/12/04 00:17:26;;;;;;;0.40;0.30;;;3.50;99.90;;;;;;4972683;28;20483;-71
2021/12/04 00:19:52;;;;;;;0.40;0.20;;;3.60;99.90;;;;;;4972405;28;20739;-70
2021/12/04 00:22:19;;;;;;;0.40;0.20;;;3.80;99.90;;;;;;4971697;28;20488;-70
2021/12/04 00:24:44;;;;;;;0.90;0.70;;;4.10;99.90;;;;;;4972216;28;20471;-71
2021/12/04 00:27:10;;;;;;;0.60;0.50;;;4.60;99.90;;;;;;4971598;28;20416;-71
2021/12/04 00:29:36;;;;;;;0.40;0.20;;;4.90;99.90;;;;;;4972153;28;20400;-71
2021/12/04 00:32:09;;;;;;;0.40;0.20;;;4.90;99.90;;;;;;4972101;28;20396;-71
2021/12/04 00:34:38;;;;;;;0.40;0.20;;;5.00;99.90;;;;;;4971471;28;20482;-71
2021/12/04 00:43:17;;;;;;;0.40;0.20;;;5.40;99.90;;;;;;4953112;29;20390;-70
2021/12/04 00:49:07;;;;;;;0.40;0.20;;;6.00;99.90;;;;;;4952544;29;20748;-71
2021/12/04 00:51:09;;;;;;;0.40;0.20;;;6.00;99.90;;;;;;4951449;28;20457;-71
2021/12/04 00:53:35;;;;;;;0.40;0.30;;;6.00;99.90;;;;;;4951992;29;20893;-70
2021/12/04 00:56:01;;;;;;;0.40;0.20;;;6.20;99.90;;;;;;4952701;29;20469;-69
2021/12/04 00:58:29;;;;;;;0.40;0.20;;;6.40;99.90;;;;;;4951070;29;20438;-71
2021/12/04 01:00:54;;;;;;;0.40;0.20;;;6.50;99.90;;;;;;4952328;29;20472;-70
2021/12/04 01:03:20;;;;;;;0.40;0.20;;;6.40;99.90;;;;;;4952586;29;20401;-71
2021/12/04 01:05:46;;;;;;;0.40;0.20;;;6.60;99.90;;;;;;4952087;29;20477;-71
2021/12/04 01:08:11;;;;;;;0.40;0.20;;;6.70;99.90;;;;;;4952430;28;20512;-68
2021/12/04 01:10:37;;;;;;;0.40;0.20;;;6.80;99.90;;;;;;4952027;29;20845;-70
2021/12/04 01:13:10;;;;;;;0.40;0.20;;;6.80;99.90;;;;;;4952322;29;20715;-72
2021/12/04 01:15:36;;;;;;;0.40;0.20;;;6.80;99.90;;;;;;4951846;29;20413;-72
2021/12/04 01:18:02;;;;;;;0.40;0.20;;;6.90;99.90;;;;;;4952474;29;20839;-70
2021/12/04 01:20:27;;;;;;;0.40;0.20;;;6.90;99.90;;;;;;4952488;29;20398;-70
2021/12/04 01:22:53;;;;;;;0.40;0.20;;;7.00;99.90;;;;;;4951931;29;20413;-68
2021/12/04 01:25:19;;;;;;;0.40;0.20;;;7.10;99.90;;;;;;4952253;29;20397;-69
2021/12/04 01:27:46;;;;;;;0.40;0.20;;;7.10;99.90;;;;;;4951353;28;20405;-68
2021/12/04 01:30:12;;;;;;;0.40;0.20;;;7.10;99.90;;;;;;4952212;29;20416;-68
2021/12/04 01:32:40;;;;;;;0.40;0.20;;;7.20;99.90;;;;;;4952458;29;20394;-68
2021/12/04 01:35:07;;;;;;;0.40;0.20;;;7.10;99.90;;;;;;4956435;28;20423;-69
2021/12/04 01:37:32;;;;;;;0.40;0.20;;;7.00;99.90;;;;;;4971308;28;20736;-69
2021/12/04 01:39:58;;;;;;;0.40;0.20;;;7.00;99.90;;;;;;4970791;28;20392;-70
2021/12/04 01:42:24;;;;;;;0.40;0.20;;;6.90;99.90;;;;;;4971300;28;20388;-68
2021/12/04 01:44:50;;;;;;;0.40;0.20;;;7.20;99.90;;;;;;4971169;28;20395;-69
2021/12/04 01:47:22;;;;;;;0.40;0.30;;;7.20;99.90;;;;;;4970863;28;20399;-69
2021/12/04 01:49:49;;;;;;;0.40;0.20;;;7.20;99.90;;;;;;4971096;28;20388;-69
2021/12/04 01:52:17;;;;;;;0.40;0.20;;;7.10;99.90;;;;;;4953617;28;20499;-70
2021/12/04 01:54:44;;;;;;;0.40;0.20;;;7.10;99.90;;;;;;4971044;28;20423;-68
2021/12/04 01:57:13;;;;;;;0.40;0.20;;;7.20;99.90;;;;;;4970652;28;20721;-71
2021/12/04 01:59:39;;;;;;;0.40;0.20;;;7.10;99.90;;;;;;4970987;28;20895;-70
2021/12/04 02:02:04;;;;;;;0.40;0.20;;;7.10;99.90;;;;;;4971617;28;20432;-69
2021/12/04 02:04:30;;;;;;;0.40;0.20;;;7.10;99.90;;;;;;4970692;28;20392;-69
2021/12/04 02:06:56;;;;;;;0.40;0.20;;;7.20;99.90;;;;;;4970982;28;20923;-70
2021/12/04 02:09:22;;;;;;;0.40;0.20;;;7.20;99.90;;;;;;4953312;28;20436;-69
2021/12/04 02:11:47;;;;;;;0.40;0.20;;;7.20;99.90;;;;;;4971314;28;20389;-69
2021/12/04 02:14:13;;;;;;;0.40;0.20;;;7.40;99.90;;;;;;4971183;28;20438;-66
2021/12/04 02:16:39;;;;;;;0.40;0.20;;;7.50;99.90;;;;;;4970574;28;20399;-68
2021/12/04 02:19:05;;;;;;;0.40;0.20;;;7.30;99.90;;;;;;4971088;28;20407;-68
2021/12/04 02:21:31;;;;;;;0.40;0.20;;;7.20;99.90;;;;;;4973816;28;20757;-68
2021/12/04 02:23:57;;;;;;;0.40;0.20;;;7.20;99.90;;;;;;4974637;28;20504;-68
2021/12/04 02:26:23;;;;;;;0.40;0.20;;;7.30;99.90;;;;;;4974635;28;20837;-69
2021/12/04 02:28:49;;;;;;;0.40;0.20;;;7.30;99.90;;;;;;4973759;28;20388;-68
2021/12/04 02:31:15;;;;;;;0.40;0.20;;;7.30;99.90;;;;;;4974486;28;20734;-70
2021/12/04 02:33:41;;;;;;;0.40;0.20;;;7.20;99.90;;;;;;4973817;28;20388;-70
2021/12/04 02:36:07;;;;;;;0.40;0.20;;;7.20;99.90;;;;;;4961298;28;20424;-69
2021/12/04 02:38:34;;;;;;;0.40;0.20;;;7.30;99.90;;;;;;4955141;29;20777;-68
2021/12/04 02:41:01;;;;;;;0.40;0.20;;;7.40;99.90;;;;;;4954512;29;20866;-69
2021/12/04 02:43:32;;;;;;;0.40;0.20;;;7.40;99.90;;;;;;4955110;29;20444;-68
2021/12/04 02:45:57;;;;;;;0.40;0.20;;;7.40;99.90;;;;;;4954155;29;20395;-68
2021/12/04 02:48:23;;;;;;;0.40;0.20;;;7.40;99.90;;;;;;4955111;29;20382;-68
2021/12/04 02:50:49;;;;;;;0.40;0.20;;;7.40;99.90;;;;;;4954650;29;20767;-69
2021/12/04 02:53:15;;;;;;;0.40;0.20;;;7.30;99.90;;;;;;4954084;28;20469;-69
2021/12/04 02:55:41;;;;;;;0.40;0.20;;;7.30;99.90;;;;;;4954792;29;20452;-68
2021/12/04 02:58:07;;;;;;;0.40;0.20;;;7.20;99.90;;;;;;4953900;29;20738;-69
2021/12/04 03:00:33;;;;;;;0.40;0.20;;;7.30;99.90;;;;;;4954759;29;20386;-70
2021/12/04 03:02:59;;;;;;;0.40;0.20;;;7.20;99.90;;;;;;4954794;29;20390;-69
2021/12/04 03:05:29;;;;;;;0.40;0.20;;;7.20;99.90;;;;;;4954053;29;20425;-69
2021/12/04 03:07:56;;;;;;;0.40;0.20;;;7.20;99.90;;;;;;4954664;29;20489;-69
2021/12/04 03:10:23;;;;;;;0.40;0.20;;;7.30;99.90;;;;;;4954079;29;20402;-69
2021/12/04 03:12:49;;;;;;;0.40;0.20;;;7.40;99.90;;;;;;4954643;29;20382;-69
2021/12/04 03:15:15;;;;;;;0.40;0.20;;;7.40;99.90;;;;;;4954202;29;20492;-72
2021/12/04 03:17:42;;;;;;;0.40;0.20;;;7.40;99.90;;;;;;4954443;29;20398;-70
2021/12/04 03:20:08;;;;;;;0.40;0.20;;;7.40;99.90;;;;;;4954126;29;20394;-69
2021/12/04 03:22:34;;;;;;;0.40;0.20;;;7.40;99.90;;;;;;4953577;29;20835;-71
2021/12/04 03:25:00;;;;;;;0.40;0.20;;;7.30;99.90;;;;;;4954241;29;20390;-70
2021/12/04 03:27:28;;;;;;;0.40;0.20;;;7.40;99.90;;;;;;4953586;29;20420;-71
2021/12/04 03:30:00;;;;;;;0.40;0.20;;;7.50;99.90;;;;;;4954139;29;20390;-71
2021/12/04 03:43:03;;;;;;;0.40;0.20;;;8.00;99.90;;;;;;4973346;28;20420;-69
2021/12/04 03:45:29;;;;;;;0.40;0.20;;;8.00;99.90;;;;;;4973229;28;20392;-71
2021/12/04 03:48:04;;;;;;;0.40;0.20;;;7.90;99.90;;;;;;4972611;28;20752;-71
2021/12/04 03:50:30;;;;;;;0.40;0.22;;;8.00;99.90;;;;;;4972577;28;20907;-70
2021/12/04 03:52:56;;;;;;;0.40;0.23;;;7.90;99.90;;;;;;4972265;28;20389;-71
2021/12/04 03:55:21;;;;;;;0.40;0.30;;;7.90;99.90;;;;;;4972705;28;20872;-70
2021/12/04 03:57:47;;;;;;;0.40;0.20;;;8.00;99.90;;;;;;4972455;28;20438;-71
2021/12/04 04:00:15;;;;;;;0.40;0.20;;;7.90;99.90;;;;;;4972653;28;20384;-70
2021/12/04 04:02:41;;;;;;;0.40;0.20;;;8.10;99.90;;;;;;4973139;28;20395;-71
2021/12/04 04:05:07;;;;;;;0.40;0.20;;;8.20;99.90;;;;;;4972326;28;20395;-69
2021/12/04 04:07:33;;;;;;;0.40;0.20;;;8.20;99.90;;;;;;4972920;28;20384;-71
2021/12/04 04:09:59;;;;;;;0.40;0.30;;;8.30;99.90;;;;;;4972008;28;20470;-71
2021/12/04 04:12:24;;;;;;;0.40;0.20;;;8.30;99.90;;;;;;4972559;28;20392;-71
2021/12/04 04:14:50;;;;;;;0.40;0.20;;;8.30;99.90;;;;;;4973072;28;20423;-71
2021/12/04 04:17:16;;;;;;;0.40;0.20;;;8.20;99.90;;;;;;4972374;28;20730;-71
2021/12/04 04:19:41;;;;;;;0.40;0.20;;;8.30;99.90;;;;;;4972333;28;20475;-70
2021/12/04 04:22:07;;;;;;;0.40;0.20;;;8.50;99.90;;;;;;4971935;28;20420;-71
2021/12/04 04:24:34;;;;;;;0.40;0.20;;;8.70;99.90;;;;;;4972550;28;20387;-71
2021/12/04 04:27:00;;;;;;;0.40;0.30;;;8.60;99.90;;;;;;4972151;28;20847;-71
2021/12/04 04:29:26;;;;;;;0.40;0.30;;;8.60;99.90;;;;;;4972112;28;20392;-71
2021/12/04 04:31:54;;;;;;;0.40;0.20;;;8.60;99.90;;;;;;4972416;28;20392;-71
2021/12/04 04:34:25;;;;;;;0.40;0.20;;;8.70;99.90;;;;;;4971700;28;20395;-69
2021/12/04 05:12:36;;;;;;;0.40;0.20;;;9.20;99.90;;;;;;4972366;28;20383;-69
2021/12/04 05:15:10;;;;;;;0.40;0.20;;;9.20;99.90;;;;;;4971937;28;20412;-70
2021/12/04 05:20:21;;;;;;;0.40;0.20;;;9.10;99.90;;;;;;4972338;28;20495;-70
2021/12/04 05:22:47;;;;;;;0.40;0.20;;;9.10;99.90;;;;;;4971350;28;20891;-72
2021/12/04 05:25:13;;;;;;;0.40;0.20;;;9.10;99.90;;;;;;4972369;28;20388;-71
2021/12/04 05:27:39;;;;;;;0.40;0.20;;;9.00;99.90;;;;;;4972040;28;20408;-70
2021/12/04 05:30:05;;;;;;;0.40;0.20;;;9.00;99.90;;;;;;4971652;28;20435;-70
2021/12/04 05:32:32;;;;;;;0.40;0.20;;;9.00;99.90;;;;;;4972463;28;20471;-69
2021/12/04 05:34:58;;;;;;;0.40;0.20;;;9.00;99.90;;;;;;4968446;28;20414;-69
2021/12/04 05:37:23;;;;;;;0.40;0.20;;;8.90;99.90;;;;;;4952205;29;20393;-69
2021/12/04 05:39:49;;;;;;;0.40;0.20;;;9.10;99.90;;;;;;4952617;29;20872;-71
2021/12/04 05:42:15;;;;;;;0.40;0.20;;;8.90;99.90;;;;;;4952155;29;20390;-70
2021/12/04 05:44:42;;;;;;;0.40;0.20;;;9.00;99.90;;;;;;4952796;29;20436;-71
2021/12/04 05:47:13;;;;;;;0.40;0.30;;;8.80;99.90;;;;;;4952434;29;20398;-71
2021/12/04 05:50:10;;;;;;;0.40;0.20;;;8.80;99.90;;;;;;4952908;29;20378;-71
2021/12/04 05:52:50;;;;;;;0.40;0.20;;;8.90;99.90;;;;;;4952062;29;20764;-72
2021/12/04 05:55:20;;;;;;;0.40;0.20;;;8.90;99.90;;;;;;4953819;28;20456;-71
2021/12/04 05:57:46;;;;;;;0.40;0.20;;;9.00;99.90;;;;;;4956638;29;20425;-71
2021/12/04 06:00:19;;;;;;;0.40;0.20;;;9.10;99.90;;;;;;4956517;29;20425;-71
2021/12/04 06:02:45;;;;;;;0.40;0.20;;;9.20;99.90;;;;;;4955847;29;20398;-72
2021/12/04 06:05:12;;;;;;;0.40;0.20;;;9.10;99.90;;;;;;4956003;29;20886;-71
2021/12/04 06:07:38;;;;;;;0.40;0.20;;;9.20;99.90;;;;;;4955773;29;20386;-73
2021/12/04 06:10:05;;;;;;;0.40;0.20;;;9.10;99.90;;;;;;4956563;29;20405;-71
2021/12/04 06:12:31;;;;;;;0.40;0.20;;;9.20;99.90;;;;;;4956284;28;20382;-71
2021/12/04 06:14:56;;;;;;;0.40;0.20;;;9.20;99.90;;;;;;4955364;28;20924;-71
2021/12/04 06:17:23;;;;;;;0.40;0.30;;;9.40;99.90;;;;;;4956218;29;20491;-71
2021/12/04 06:22:42;;;;;;;0.40;0.20;;;9.40;99.90;;;;;;4955948;29;20388;-70
2021/12/04 06:25:12;;;;;;;0.40;0.30;;;9.40;99.90;;;;;;4955582;29;20401;-70
2021/12/04 06:27:39;;;;;;;0.40;0.20;;;9.50;99.90;;;;;;4956043;29;20779;-71
2021/12/04 06:30:08;;;;;;;0.40;0.20;;;9.50;99.90;;;;;;4955510;29;20378;-69
2021/12/04 06:32:37;;;;;;;0.40;0.20;;;9.40;99.90;;;;;;4956175;29;20401;-69
2021/12/04 06:35:09;;;;;;;0.40;0.20;;;9.40;99.90;;;;;;4959383;28;20420;-72
2021/12/04 06:37:35;;;;;;;0.40;0.20;;;9.40;99.90;;;;;;4974475;28;20826;-67
2021/12/04 06:40:02;;;;;;;0.40;0.20;;;9.50;99.90;;;;;;4957866;28;20393;-71
2021/12/04 06:42:28;;;;;;;0.40;0.20;;;9.50;99.90;;;;;;4974119;28;20442;-69
2021/12/04 06:44:56;;;;;;;0.40;0.20;;;9.50;99.90;;;;;;4975174;28;20396;-70
2021/12/04 06:47:22;;;;;;;0.40;0.20;;;9.60;99.90;;;;;;4974403;28;20388;-71
2021/12/04 06:49:49;;;;;;;0.40;0.25;;;9.60;99.90;;;;;;4974618;28;20392;-72
2021/12/04 06:52:18;;;;;;;0.40;0.20;;;9.60;99.90;;;;;;4974712;28;20905;-71
2021/12/04 06:55:04;;;;;;;0.40;0.20;;;9.70;99.90;;;;;;4974870;28;20447;-69
2021/12/04 06:57:32;;;;;;;0.40;0.20;;;9.70;99.90;;;;;;4973871;28;20959;-69
2021/12/04 06:59:59;;;;;;;0.40;0.20;;;9.80;99.90;;;;;;4974779;28;20451;-72
2021/12/04 07:02:24;;;;;;;0.40;0.20;;;9.70;99.90;;;;;;4941458;28;20434;-71
2021/12/04 07:04:50;;;;;;;0.40;0.20;;;9.70;99.90;;;;;;4974109;28;20809;-70
2021/12/04 07:07:17;;;;;;;0.40;0.20;;;9.70;99.90;;;;;;4974107;28;20388;-71
2021/12/04 07:09:43;;;;;;;0.40;0.20;;;9.70;99.90;;;;;;4974059;28;20412;-72
2021/12/04 07:12:11;;;;;;;0.40;0.20;;;9.80;99.90;;;;;;4974285;28;20903;-73
2021/12/04 07:14:38;;;;;;;0.40;0.20;;;9.80;99.90;;;;;;4974428;28;20420;-73
2021/12/04 07:17:05;;;;;;;0.40;0.20;;;9.80;99.90;;;;;;4974747;28;20431;-70
2021/12/04 07:19:31;;;;;;;0.40;0.20;;;9.90;99.90;;;;;;4974122;28;20479;-72
2021/12/04 07:21:57;;;;;;;0.40;0.20;;;9.90;99.90;;;;;;4973856;28;20407;-70
2021/12/04 07:24:23;;;;;;;0.40;0.20;;;9.90;99.90;;;;;;4974349;28;20471;-69
2021/12/04 07:26:49;;;;;;;0.40;0.20;;;9.90;99.90;;;;;;4974338;28;20493;-71
2021/12/04 07:29:15;;;;;;;0.40;0.20;;;9.90;99.90;;;;;;4974272;28;20388;-71
2021/12/04 07:31:41;;;;;;;0.40;0.20;;;10.00;99.90;;;;;;4974411;28;20393;-70
2021/12/04 07:34:07;;;;;;;0.40;0.20;;;10.00;99.90;;;;;;4973292;28;20384;-72
2021/12/04 07:36:33;;;;;;;0.40;0.20;;;10.00;99.90;;;;;;4957670;28;20758;-72
2021/12/04 07:38:59;;;;;;;0.40;0.20;;;10.00;99.90;;;;;;4937737;29;20394;-69
2021/12/04 07:41:27;;;;;;;0.40;0.30;;;10.00;99.90;;;;;;4954219;29;20390;-71
2021/12/04 07:43:53;;;;;;;0.40;0.40;;;10.00;99.90;;;;;;4954484;29;20754;-70
2021/12/04 07:46:19;;;;;;;0.40;0.20;;;10.00;99.90;;;;;;4954152;29;20394;-68
2021/12/04 07:48:45;;;;;;;0.40;0.22;;;10.10;99.90;;;;;;4954294;29;20388;-70
2021/12/04 07:51:11;;;;;;;0.40;0.20;;;10.10;99.90;;;;;;4954249;29;20846;-70
2021/12/04 07:53:37;;;;;;;0.40;0.20;;;10.10;99.90;;;;;;4953677;29;20859;-71
2021/12/04 07:56:04;;;;;;;0.40;0.20;;;10.20;99.90;;;;;;4937279;29;20421;-72
2021/12/04 07:58:30;;;;;;;0.40;0.20;;;10.10;99.90;;;;;;4953803;28;20413;-71
2021/12/04 08:00:56;;;;;;;0.40;0.20;;;10.10;99.90;;;;;;4954717;29;20863;-71
2021/12/04 08:03:22;;;;;;;0.40;0.20;;;10.30;99.90;;;;;;4954105;29;20422;-71
2021/12/04 08:05:49;;;;;;;0.40;0.20;;;10.20;99.90;;;;;;4953597;29;20843;-71
2021/12/04 08:08:15;;;;;;;0.40;0.20;;;10.20;99.90;;;;;;4954118;29;20433;-70
2021/12/04 08:10:41;;;;;;;0.40;0.20;;;10.30;99.90;;;;;;4953425;29;20417;-71
2021/12/04 08:13:06;;;;;;;0.40;0.20;;;10.30;99.90;;;;;;4953955;29;20533;-70
2021/12/04 08:15:35;;;;;;;0.40;0.20;;;10.30;99.90;;;;;;4954133;29;20552;-71
2021/12/04 08:18:01;;;;;;;0.40;0.20;;;10.40;99.90;;;;;;4952847;28;20393;-71
2021/12/04 08:20:27;;;;;;;0.40;0.20;;;10.30;99.90;;;;;;4954034;29;20871;-70
2021/12/04 08:22:52;;;;;;;0.40;0.20;;;10.40;99.90;;;;;;4953350;28;20394;-70
2021/12/04 08:25:19;;;;;;;0.40;0.20;;;10.50;99.90;;;;;;4954218;29;20404;-72
2021/12/04 08:27:47;;;;;;;0.40;0.20;;;10.50;99.90;;;;;;4953901;29;20390;-71
2021/12/04 08:30:16;;;;;;;0.40;0.20;;;10.50;99.90;;;;;;4953182;29;20394;-74
2021/12/04 08:32:43;;;;;;;0.40;0.30;;;10.50;99.90;;;;;;4954060;29;20390;-72
2021/12/04 08:35:12;;;;;;;0.40;0.20;;;10.50;99.90;;;;;;4952571;29;20539;-72
2021/12/04 08:37:38;;;;;;;0.40;0.20;;;10.50;99.90;;;;;;4953101;29;20480;-72
2021/12/04 08:40:10;;;;;;;0.40;0.20;;;10.50;99.90;;;;;;4952920;29;20473;-72
2021/12/04 08:42:36;;;;;;;0.40;0.20;;;10.60;99.90;;;;;;4953782;29;20394;-73
2021/12/04 08:45:02;;;;;;;0.40;0.20;;;10.60;99.90;;;;;;4953839;29;20389;-74
2021/12/04 08:47:28;;;;;;;0.40;0.20;;;10.60;99.90;;;;;;4953149;29;20386;-74
2021/12/04 08:49:54;;;;;;;0.40;0.20;;;10.60;99.90;;;;;;4935702;29;20882;-73
2021/12/04 08:52:20;;;;;;;0.40;0.20;;;10.70;99.90;;;;;;4952683;29;20382;-71
2021/12/04 08:54:46;;;;;;;0.40;0.30;;;10.70;99.90;;;;;;4953283;29;20409;-72
2021/12/04 08:57:12;;;;;;;0.40;0.20;;;10.70;99.90;;;;;;4953115;29;20395;-70
2021/12/04 08:59:38;;;;;;;0.40;0.20;;;10.70;99.90;;;;;;4952403;29;20795;-70
2021/12/04 09:02:06;;;;;;;0.40;0.30;;;10.70;99.90;;;;;;4935912;29;20949;-70
2021/12/04 09:04:35;;;;;;;0.40;0.20;;;10.70;99.90;;;;;;4952667;29;20763;-71
2021/12/04 09:07:03;;;;;;;0.40;0.20;;;10.70;99.90;;;;;;4953322;29;20401;-70
2021/12/04 09:09:30;;;;;;;0.40;0.20;;;10.70;99.90;;;;;;4952625;29;20461;-71
2021/12/04 09:11:59;;;;;;;0.40;0.22;;;10.70;99.90;;;;;;4953032;29;20397;-70
2021/12/04 09:14:28;;;;;;;0.40;0.20;;;10.70;99.90;;;;;;4952890;29;20394;-71
2021/12/04 09:16:56;;;;;;;0.40;0.20;;;10.70;99.90;;;;;;4953036;29;20390;-70
2021/12/04 09:19:23;;;;;;;0.40;0.20;;;10.70;99.90;;;;;;4953096;29;20445;-70
2021/12/04 09:21:49;;;;;;;0.40;0.20;;;10.80;99.90;;;;;;4952664;29;20440;-70
2021/12/04 09:24:17;;;;;;;0.40;0.20;;;10.80;99.90;;;;;;4952718;29;20406;-69
2021/12/04 09:26:54;;;;;;;0.40;0.20;;;10.70;99.90;;;;;;4952325;29;20569;-71
2021/12/04 10:06:26;;;;;;;0.40;0.20;;;10.90;99.90;;;;;;4971519;28;20483;-71
2021/12/04 10:20:17;;;;;;;0.40;0.30;;;10.40;99.90;;;;;;4971675;28;20396;-70
2021/12/04 10:23:38;;;;;;;0.40;0.20;;;10.20;99.90;;;;;;4971775;28;20547;-71
2021/12/04 10:33:49;;;;;;;0.40;0.20;;;10.10;99.90;;;;;;4971824;28;20395;-70
2021/12/04 10:36:31;;;;;;;0.40;0.20;;;10.10;99.90;;;;;;4957364;28;20410;-69
2021/12/04 10:38:57;;;;;;;0.40;0.20;;;10.20;99.90;;;;;;4952308;29;20489;-70
2021/12/04 10:41:35;;;;;;;0.40;0.30;;;10.30;99.90;;;;;;4953693;28;20502;-71
2021/12/04 10:44:17;;;;;;;0.40;0.20;;;10.30;99.90;;;;;;4948867;29;20390;-70
2021/12/04 10:46:56;;;;;;;0.40;0.20;;;10.30;99.90;;;;;;4954845;29;20490;-70
2021/12/04 10:55:30;;;;;;;0.40;0.30;;;10.40;99.90;;;;;;4955434;29;20468;-69
2021/12/04 11:39:44;;;;;;;0.40;0.30;;;10.90;99.90;;;;;;4935709;29;20568;-70
2021/12/04 11:45:18;;;;;;;0.40;0.20;;;10.90;99.90;;;;;;4935501;29;20415;-69
2021/12/04 11:47:49;;;;;;;0.40;0.20;;;10.90;99.90;;;;;;4934169;29;20418;-71
2021/12/04 11:50:39;;;;;;;0.40;0.20;;;11.00;99.90;;;;;;4938357;29;20485;-70
2021/12/04 11:53:09;;;;;;;0.40;0.30;;;11.00;99.90;;;;;;4953577;28;20469;-70
2021/12/04 11:55:40;;;;;;;0.40;0.30;;;11.10;99.90;;;;;;4953818;29;20985;-68
2021/12/04 11:58:21;;;;;;;0.40;0.20;;;11.10;99.90;;;;;;4954417;28;20493;-70
2021/12/04 12:00:49;;;;;;;0.40;0.20;;;11.00;99.90;;;;;;4954220;28;20390;-70
2021/12/04 12:03:18;;;;;;;0.40;0.20;;;11.10;99.90;;;;;;4954393;29;20472;-71
2021/12/04 12:05:59;;;;;;;0.40;0.20;;;11.00;99.90;;;;;;4954331;29;20402;-71
2021/12/04 12:08:34;;;;;;;0.40;0.20;;;11.00;99.90;;;;;;4953652;29;20444;-72
2021/12/04 12:11:04;;;;;;;0.40;0.22;;;10.90;99.90;;;;;;4954217;28;20394;-71
2021/12/04 12:13:33;;;;;;;0.40;0.20;;;10.90;99.90;;;;;;4953689;29;20516;-70
2021/12/04 12:16:06;;;;;;;0.40;0.30;;;10.90;99.90;;;;;;4954102;28;20409;-69
2021/12/04 12:18:54;;;;;;;0.40;0.30;;;11.00;99.90;;;;;;4953648;29;20386;-69
2021/12/04 12:21:26;;;;;;;0.40;0.20;;;11.00;99.90;;;;;;4954122;29;20494;-71
2021/12/04 12:33:14;;;;;;;0.40;0.30;;;10.90;99.90;;;;;;4953011;29;20389;-71
2021/12/04 12:36:09;;;;;;;0.40;0.20;;;10.90;99.90;;;;;;4962540;28;20906;-72
2021/12/04 12:38:41;;;;;;;0.40;0.30;;;10.80;99.90;;;;;;4955689;28;20811;-72
2021/12/04 12:41:30;;;;;;;0.40;0.20;;;10.80;99.90;;;;;;4973319;28;20503;-71
2021/12/04 12:44:14;;;;;;;0.40;0.20;;;10.80;99.90;;;;;;4954696;28;20404;-70
2021/12/04 12:46:56;;;;;;;0.40;0.20;;;10.80;99.90;;;;;;4972663;28;20400;-71
2021/12/04 12:49:25;;;;;;;0.40;0.20;;;10.80;99.90;;;;;;4955703;28;20927;-72
2021/12/04 12:52:02;;;;;;;0.40;0.20;;;10.80;99.90;;;;;;4972006;28;20431;-72
2021/12/04 12:54:34;;;;;;;0.40;0.20;;;10.80;99.90;;;;;;4972932;28;20400;-72
2021/12/04 12:57:03;;;;;;;0.40;0.20;;;10.70;99.90;;;;;;4971997;28;20837;-71
2021/12/04 12:59:40;;;;;;;0.40;0.20;;;10.70;99.90;;;;;;4972810;28;20407;-73
2021/12/04 13:13:44;;;;;;;0.40;0.20;;;10.90;99.90;;;;;;4972489;28;20387;-71
2021/12/04 13:16:19;;;;;;;0.40;0.20;;;10.90;99.90;;;;;;4971834;28;20424;-72
2021/12/04 13:18:56;;;;;;;0.40;0.20;;;10.90;99.90;;;;;;4972388;28;20396;-71
2021/12/04 13:21:24;;;;;;;0.40;0.22;;;11.00;99.90;;;;;;4972073;28;20427;-70
2021/12/04 13:23:52;;;;;;;0.40;0.20;;;11.10;99.90;;;;;;4972314;28;20408;-71
2021/12/04 13:26:24;;;;;;;0.40;0.20;;;11.10;99.90;;;;;;4971709;28;20395;-71
2021/12/04 13:28:51;;;;;;;0.40;0.20;;;11.00;99.90;;;;;;4954857;28;20393;-70
2021/12/04 13:31:18;;;;;;;0.40;0.30;;;10.90;99.90;;;;;;4971669;28;20388;-71
2021/12/04 13:33:45;;;;;;;0.40;0.20;;;10.80;99.90;;;;;;4972196;28;20396;-70
2021/12/04 13:36:31;;;;;;;0.40;0.20;;;10.80;99.90;;;;;;4958347;28;20453;-70
2021/12/04 13:39:15;;;;;;;0.40;0.20;;;10.70;99.90;;;;;;4952907;29;20743;-69
2021/12/04 13:41:43;;;;;;;0.40;0.20;;;10.70;99.90;;;;;;4952305;29;20397;-70
2021/12/04 13:44:11;;;;;;;0.40;0.20;;;10.60;99.90;;;;;;4952982;29;20386;-71
2021/12/04 13:47:02;;;;;;;0.40;0.20;;;10.50;99.90;;;;;;4952188;29;20447;-71
2021/12/04 13:49:34;;;;;;;0.40;0.20;;;10.40;99.90;;;;;;4952372;29;20390;-71
2021/12/04 13:52:09;;;;;;;0.40;0.20;;;10.20;99.90;;;;;;4952990;29;20444;-71
2021/12/04 13:54:39;;;;;;;0.40;0.20;;;10.20;99.90;;;;;;4952082;29;20772;-71
2021/12/04 13:57:10;;;;;;;0.40;0.20;;;10.10;99.90;;;;;;4952797;29;20405;-71
2021/12/04 13:59:37;;;;;;;0.40;0.27;;;10.00;99.90;;;;;;4952174;29;20398;-72
2021/12/04 14:02:03;;;;;;;0.40;0.20;;;10.00;99.90;;;;;;4952289;29;20398;-70
2021/12/04 14:04:29;;;;;;;0.40;0.20;;;10.00;99.90;;;;;;4952839;29;20428;-71
2021/12/04 14:07:00;;;;;;;0.40;0.20;;;10.00;99.90;;;;;;4952081;29;20385;-70
2021/12/04 14:09:38;;;;;;;0.40;0.20;;;10.00;99.90;;;;;;4952846;29;20477;-71
2021/12/04 14:12:06;;;;;;;0.40;0.30;;;10.00;99.90;;;;;;4952786;29;20401;-73
2021/12/04 14:14:34;;;;;;;0.40;0.20;;;10.00;99.90;;;;;;4952577;29;20428;-70
2021/12/04 14:17:11;;;;;;;0.40;0.20;;;10.00;99.90;;;;;;4954436;28;20393;-71
2021/12/04 14:19:37;;;;;;;0.93;0.43;;;10.00;99.90;;;;;;4956255;29;20510;-70
2021/12/04 14:22:10;;;;;;;0.40;0.40;;;9.90;99.90;;;;;;4955658;29;20422;-68
2021/12/04 14:24:45;;;;;;;0.40;0.20;;;10.00;99.90;;;;;;4956068;29;20394;-69
2021/12/04 14:27:20;;;;;;;0.40;0.20;;;9.90;99.90;;;;;;4956172;29;20496;-69
2021/12/04 14:29:54;;;;;;;0.40;0.30;;;9.90;99.90;;;;;;4956140;29;20448;-72
2021/12/04 14:32:25;;;;;;;0.40;0.20;;;9.70;99.90;;;;;;4956135;29;20742;-72
2021/12/04 14:35:04;;;;;;;0.40;0.30;;;9.80;99.90;;;;;;4957844;28;20958;-69
2021/12/04 14:37:43;;;;;;;0.40;0.20;;;9.70;99.90;;;;;;4975165;28;20414;-69
2021/12/04 14:40:12;;;;;;;0.40;0.20;;;9.60;99.90;;;;;;4974726;28;20397;-70
2021/12/04 14:42:38;;;;;;;0.40;0.20;;;9.60;99.90;;;;;;4975035;28;20380;-69
2021/12/04 14:45:08;;;;;;;0.40;0.30;;;9.60;99.90;;;;;;4974510;28;20396;-68
2021/12/04 14:47:41;;;;;;;0.40;0.30;;;9.60;99.90;;;;;;4957590;28;20462;-68
2021/12/04 14:50:10;;;;;;;0.40;0.20;;;9.60;99.90;;;;;;4974435;28;20412;-69
2021/12/04 14:52:37;;;;;;;0.40;0.30;;;9.50;99.90;;;;;;4974869;28;20396;-71
2021/12/04 14:55:36;;;;;;;0.40;0.20;;;9.40;99.90;;;;;;4974460;28;20420;-70
2021/12/04 14:58:05;;;;;;;0.60;0.60;;;9.40;99.90;;;;;;4942483;28;20765;-71
2021/12/04 15:00:38;;;;;;;0.40;0.20;;;9.30;99.90;;;;;;4975078;28;20487;-70
2021/12/04 15:03:09;;;;;;;0.40;0.30;;;9.30;99.90;;;;;;4974873;28;20729;-70
2021/12/04 15:05:44;;;;;;;0.40;0.20;;;9.40;99.90;;;;;;4974899;28;20946;-70
2021/12/04 15:08:20;;;;;;;0.40;0.20;;;9.30;99.90;;;;;;4974464;28;20398;-70
2021/12/04 15:10:55;;;;;;;0.40;0.20;;;9.40;99.90;;;;;;4974625;28;20376;-70
2021/12/04 15:13:23;;;;;;;0.40;0.30;;;9.40;99.90;;;;;;4957685;28;20748;-69
2021/12/04 15:15:52;;;;;;;0.40;0.30;;;9.30;99.90;;;;;;4974541;28;20428;-71
2021/12/04 15:18:21;;;;;;;0.40;0.20;;;9.30;99.90;;;;;;4973718;28;20396;-71
2021/12/04 15:20:58;;;;;;;0.40;0.30;;;9.30;99.90;;;;;;4974558;28;20865;-71
2021/12/04 15:23:27;;;;;;;0.40;0.20;;;9.30;99.90;;;;;;4973761;28;20424;-70
2021/12/04 15:25:56;;;;;;;0.40;0.30;;;9.30;99.90;;;;;;4974550;28;20493;-71
2021/12/04 15:28:25;;;;;;;0.40;0.20;;;9.20;99.90;;;;;;4974259;28;20407;-71
2021/12/04 15:30:55;;;;;;;0.40;0.20;;;9.20;99.90;;;;;;4974349;28;20443;-72
2021/12/04 15:33:36;;;;;;;0.40;0.30;;;9.10;99.90;;;;;;4974246;28;20400;-72
2021/12/04 15:36:03;;;;;;;0.40;0.20;;;9.10;99.90;;;;;;4961553;28;20431;-71
2021/12/04 15:38:36;;;;;;;0.40;0.20;;;9.20;99.90;;;;;;4954238;29;20392;-71
2021/12/04 15:41:16;;;;;;;0.90;0.50;;;9.30;99.90;;;;;;4954937;29;20417;-71
2021/12/04 15:54:21;;;;;;;0.40;0.20;;;9.40;99.90;;;;;;4954525;29;20432;-71
2021/12/04 15:56:50;;;;;;;0.40;0.20;;;9.50;99.90;;;;;;4953920;29;20465;-71
2021/12/04 15:59:19;;;;;;;0.60;0.50;;;9.50;99.90;;;;;;4954372;29;20497;-71
2021/12/04 16:01:45;;;;;;;0.40;0.20;;;9.50;99.90;;;;;;4953822;29;20397;-72
2021/12/04 16:04:41;;;;;;;0.40;0.20;;;9.60;99.90;;;;;;4954387;29;20390;-70
2021/12/04 16:07:07;;;;;;;0.40;0.20;;;9.60;99.90;;;;;;4933657;29;20473;-71
2021/12/04 16:09:37;;;;;;;0.40;0.20;;;9.60;99.90;;;;;;4954264;29;20392;-71
2021/12/04 16:12:13;;;;;;;0.40;0.20;;;9.60;99.90;;;;;;4953438;29;20548;-71
2021/12/04 16:14:45;;;;;;;0.40;0.20;;;9.60;99.90;;;;;;4936703;29;20398;-72
2021/12/04 16:17:12;;;;;;;0.40;0.20;;;9.60;99.90;;;;;;4953413;29;20666;-72
2021/12/04 16:19:40;;;;;;;0.40;0.20;;;9.60;99.90;;;;;;4953878;29;20455;-72
2021/12/04 16:22:09;;;;;;;0.40;0.30;;;9.50;99.90;;;;;;4953461;29;20402;-73